createdAt,value
2023-01-19T00:05:27.834Z,4.20
2023-01-19T00:15:49.168Z,4.12
2023-01-19T00:26:10.993Z,4.08
2023-01-19T00:36:32.738Z,4.05
2023-01-19T00:46:54.095Z,3.96
2023-01-19T00:57:15.710Z,4.00
2023-01-19T01:07:45.178Z,3.98
2023-01-19T01:18:06.781Z,4.00
2023-01-19T01:28:28.123Z,4.00
2023-01-19T01:38:49.570Z,4.00
2023-01-19T01:49:13.633Z,3.95
2023-01-19T01:59:39.160Z,3.98
2023-01-19T02:10:19.378Z,4.05
2023-01-19T02:20:43.150Z,3.98
2023-01-19T02:31:04.729Z,3.90
2023-01-19T02:41:28.432Z,3.87
2023-01-19T02:51:50.125Z,3.83
2023-01-19T03:02:30.551Z,3.73
2023-01-19T03:13:15.274Z,3.72
2023-01-19T03:23:38.721Z,3.68
2023-01-19T03:34:03.396Z,3.63
2023-01-19T03:44:26.769Z,3.68
2023-01-19T03:54:48.174Z,3.65
2023-01-19T04:05:09.649Z,3.68
2023-01-19T04:15:31.470Z,3.68
2023-01-19T04:25:59.888Z,3.63
2023-01-19T04:36:21.322Z,3.60
2023-01-19T04:46:42.751Z,3.54
2023-01-19T04:57:04.195Z,3.49
2023-01-19T05:07:25.577Z,3.53
2023-01-19T05:17:46.980Z,3.52
2023-01-19T05:28:08.585Z,3.56
2023-01-19T05:38:35.365Z,3.60
2023-01-19T05:48:57.458Z,3.57
2023-01-19T05:59:23.991Z,3.61
2023-01-19T06:09:45.382Z,3.63
2023-01-19T06:20:07.240Z,3.61
2023-01-19T06:30:29.054Z,3.65
2023-01-19T06:41:02.544Z,3.63
2023-01-19T06:51:24.323Z,3.63
2023-01-19T07:01:45.861Z,3.66
2023-01-19T07:12:07.800Z,3.67
2023-01-19T07:22:29.151Z,3.71
2023-01-19T07:32:50.475Z,3.66
2023-01-19T07:43:11.817Z,3.74
2023-01-19T07:53:33.358Z,3.78
2023-01-19T08:03:54.817Z,3.82
2023-01-19T08:14:16.221Z,3.85
2023-01-19T08:24:37.691Z,3.85
2023-01-19T08:34:59.043Z,3.87
2023-01-19T08:45:20.420Z,3.90
2023-01-19T08:55:41.836Z,3.98
2023-01-19T09:06:06.876Z,3.98
2023-01-19T09:16:29.271Z,4.01
2023-01-19T09:26:50.773Z,4.05
2023-01-19T09:37:12.551Z,4.17
2023-01-19T09:47:35.160Z,4.28
2023-01-19T09:57:56.582Z,4.40
2023-01-19T10:08:34.937Z,4.45
2023-01-19T10:18:58.027Z,4.71
2023-01-19T10:29:19.615Z,4.84
2023-01-19T10:39:41.900Z,4.93
2023-01-19T10:50:23.596Z,5.06
2023-01-19T11:00:44.993Z,5.16
2023-01-19T11:11:08.655Z,5.30
2023-01-19T11:21:31.212Z,5.42
2023-01-19T11:31:53.649Z,5.60
2023-01-19T11:42:15.575Z,5.75
2023-01-19T11:52:50.924Z,5.82
2023-01-19T12:03:12.298Z,5.99
2023-01-19T12:13:34.649Z,6.23
2023-01-19T12:24:16.261Z,6.37
2023-01-19T12:34:41.873Z,6.43
2023-01-19T12:45:14.856Z,6.39
2023-01-19T12:55:37.670Z,6.44
2023-01-19T13:05:59.173Z,6.46
2023-01-19T13:16:25.040Z,6.51
2023-01-19T13:26:49.378Z,6.45
2023-01-19T13:37:21.856Z,6.34
2023-01-19T13:47:45.604Z,6.30
2023-01-19T13:58:19.491Z,6.26
2023-01-19T14:08:40.936Z,6.20
2023-01-19T14:19:04.223Z,6.19
2023-01-19T14:29:25.823Z,6.07
2023-01-19T14:39:48.955Z,5.89
2023-01-19T14:50:27.847Z,5.73
2023-01-19T15:00:49.646Z,5.56
2023-01-19T15:11:29.948Z,5.36
2023-01-19T15:21:51.345Z,5.24
2023-01-19T15:32:14.157Z,5.05
2023-01-19T15:42:35.564Z,4.97
2023-01-19T15:52:57.092Z,4.82
2023-01-19T16:03:18.440Z,4.80
2023-01-19T16:13:40.011Z,4.86
2023-01-19T16:24:01.444Z,4.78
2023-01-19T16:34:25.324Z,4.70
2023-01-19T16:44:46.688Z,4.69
2023-01-19T16:55:09.566Z,4.66
2023-01-19T17:05:30.988Z,4.53
2023-01-19T17:15:52.385Z,4.55
2023-01-19T17:26:13.962Z,4.56
2023-01-19T17:36:35.367Z,4.48
2023-01-19T17:46:59.814Z,4.39
2023-01-19T17:57:21.325Z,4.27
2023-01-19T18:07:42.915Z,4.24
2023-01-19T18:18:04.329Z,4.20
2023-01-19T18:28:25.859Z,4.06
2023-01-19T18:38:47.694Z,4.04
2023-01-19T18:49:09.693Z,3.87
2023-01-19T18:59:31.128Z,3.91
2023-01-19T19:09:52.589Z,3.86
2023-01-19T19:20:14.484Z,3.76
2023-01-19T19:30:37.932Z,3.63
2023-01-19T19:41:04.175Z,3.53
2023-01-19T19:51:27.291Z,3.45
2023-01-19T20:01:50.441Z,3.27
2023-01-19T20:12:11.879Z,3.24
2023-01-19T20:22:33.221Z,3.13
2023-01-19T20:33:10.400Z,3.06
2023-01-19T20:43:31.854Z,3.01
2023-01-19T20:53:53.441Z,2.89
2023-01-19T21:04:15.410Z,2.86
2023-01-19T21:14:36.875Z,2.83
2023-01-19T21:24:58.235Z,2.77
2023-01-19T21:35:19.605Z,2.75
2023-01-19T21:45:43.010Z,2.72
2023-01-19T21:56:08.320Z,2.72
2023-01-19T22:06:29.703Z,2.70
2023-01-19T22:16:51.101Z,2.67
2023-01-19T22:27:12.945Z,2.57
2023-01-19T22:37:34.927Z,2.47
2023-01-19T22:47:56.299Z,2.46
2023-01-19T22:58:19.365Z,2.39
2023-01-19T23:08:41.401Z,2.35
2023-01-19T23:19:03.367Z,2.32
2023-01-19T23:29:24.751Z,2.26
2023-01-19T23:39:46.097Z,2.18
2023-01-19T23:50:07.826Z,2.08
